Time;durP1;ratioP1;P1;durP2;ratioP2;P2;SDS_P1;SDS_P2;PMS_P1;PMS_P2;Temp;Humidity;BMP_temperature;BMP_pressure;BME280_temperature;BME280_humidity;BME280_pressure;Samples;Min_cycle;Max_cycle;Signal;HPM_P1;HPM_P2
2023/07/27 00:01:58;;;;;;;11.75;6.68;;;;;;;24.20;nan;62046.53;5072930;28;20178;-62
2023/07/27 00:04:24;;;;;;;11.95;6.90;;;;;;;24.41;nan;62236.50;5072942;28;20284;-62
2023/07/27 00:06:49;;;;;;;11.57;6.57;;;;;;;24.30;nan;62153.41;5072598;28;20235;-61
2023/07/27 00:09:15;;;;;;;11.10;6.65;;;;;;;24.18;nan;62226.50;5072980;28;20260;-62
2023/07/27 00:11:41;;;;;;;11.55;7.07;;;;;;;24.28;nan;62107.28;5072636;28;20177;-61
2023/07/27 00:14:06;;;;;;;10.13;6.60;;;;;;;24.09;nan;62080.44;5072980;28;20353;-60
2023/07/27 00:16:32;;;;;;;12.05;6.80;;;;;;;24.26;nan;62159.31;5073234;28;20629;-62
2023/07/27 00:18:57;;;;;;;13.45;7.13;;;;;;;24.32;nan;62174.00;5072674;28;20173;-62
2023/07/27 00:21:22;;;;;;;12.38;6.22;;;;;;;24.07;nan;62128.34;5072828;28;20166;-63
2023/07/27 00:23:48;;;;;;;10.07;6.05;;;;;;;21.65;nan;63660.56;5072942;28;20206;-61
2023/07/27 00:26:13;;;;;;;10.35;6.20;;;;;;;24.14;nan;62044.91;5072743;28;20315;-61
2023/07/27 00:28:39;;;;;;;11.23;6.22;;;;;;;23.74;nan;62151.34;5073320;28;20174;-61
2023/07/27 00:31:04;;;;;;;12.38;6.47;;;;;;;23.97;nan;62056.91;5072626;28;20201;-61
2023/07/27 00:33:29;;;;;;;9.18;5.18;;;;;;;24.11;nan;62101.56;5072820;28;20220;-61
2023/07/27 00:35:56;;;;;;;10.40;5.85;;;;;;;23.90;nan;62085.50;5072611;28;20169;-61
2023/07/27 00:38:22;;;;;;;8.20;4.95;;;;;;;23.94;nan;62043.06;5072580;28;20174;-61
2023/07/27 00:40:47;;;;;;;9.70;5.30;;;;;;;23.96;nan;62235.88;5072518;28;20166;-62
2023/07/27 00:43:12;;;;;;;8.02;5.28;;;;;;;24.06;nan;62077.59;5072024;28;20669;-62
2023/07/27 00:45:38;;;;;;;9.73;5.13;;;;;;;24.01;nan;62064.06;5072412;28;20261;-60
2023/07/27 00:48:04;;;;;;;9.07;5.00;;;;;;;23.74;nan;62192.53;5072506;28;20174;-61
2023/07/27 00:50:32;;;;;;;7.93;4.47;;;;;;;23.94;nan;62115.56;5072753;28;20158;-60
2023/07/27 00:52:58;;;;;;;7.25;4.47;;;;;;;23.88;nan;62166.16;5072697;28;20237;-62
2023/07/27 00:55:24;;;;;;;6.68;4.28;;;;;;;23.84;nan;62059.81;5072283;28;20220;-61
2023/07/27 00:57:50;;;;;;;9.00;4.72;;;;;;;23.71;nan;61990.78;5072262;28;20244;-62
2023/07/27 01:00:16;;;;;;;6.97;4.38;;;;;;;23.97;nan;62096.06;5072276;28;20181;-61
2023/07/27 01:02:41;;;;;;;7.13;4.72;;;;;;;23.75;nan;62011.00;5072783;28;20189;-62
2023/07/27 01:05:07;;;;;;;9.35;4.95;;;;;;;23.75;nan;61990.69;5072074;28;20222;-62
2023/07/27 01:07:32;;;;;;;8.88;4.70;;;;;;;23.90;nan;62043.16;5053912;28;20261;-62
2023/07/27 01:09:58;;;;;;;7.15;4.55;;;;;;;23.69;nan;62187.41;5071793;28;20166;-63
2023/07/27 01:12:34;;;;;;;10.38;4.43;;;;;;;23.88;nan;62181.81;5071926;28;20170;-61
2023/07/27 01:15:15;;;;;;;8.80;4.47;;;;;;;23.92;nan;62123.72;5072133;28;20173;-62
2023/07/27 01:17:59;;;;;;;8.80;4.63;;;;;;;23.61;nan;62029.00;5071587;28;20205;-62
2023/07/27 01:20:29;;;;;;;6.50;4.00;;;;;;;23.81;nan;62126.88;5072405;28;20169;-62
2023/07/27 01:23:18;;;;;;;10.57;4.45;;;;;;;23.76;nan;62171.31;5071518;28;20734;-62
2023/07/27 01:26:27;;;;;;;7.88;4.35;;;;;;;23.49;nan;62231.84;5072140;28;20345;-62
2023/07/27 01:29:29;;;;;;;6.07;3.83;;;;;;;23.82;nan;62107.69;5071676;28;20687;-61
2023/07/27 01:31:56;;;;;;;6.75;3.90;;;;;;;23.49;nan;62122.84;5072182;28;20173;-62
2023/07/27 01:34:27;;;;;;;9.27;4.72;;;;;;;23.53;nan;62035.56;5071848;28;20178;-61
2023/07/27 01:36:58;;;;;;;7.85;4.65;;;;;;;23.61;nan;62152.19;5072181;28;20170;-60
2023/07/27 01:39:26;;;;;;;6.57;4.32;;;;;;;23.64;nan;62048.06;5071618;28;20170;-61
2023/07/27 01:41:54;;;;;;;7.57;4.55;;;;;;;23.74;nan;62046.38;5071817;28;20177;-63
2023/07/27 01:44:24;;;;;;;6.15;3.97;;;;;;;23.39;nan;62092.63;5070276;28;20286;-62
2023/07/27 01:46:51;;;;;;;6.75;3.95;;;;;;;23.62;nan;62061.44;5071540;28;20170;-63
2023/07/27 01:49:18;;;;;;;6.70;3.80;;;;;;;23.61;nan;62285.25;5071665;28;20170;-61
2023/07/27 01:51:45;;;;;;;7.10;4.30;;;;;;;23.53;nan;62038.72;5071465;28;20169;-60
2023/07/27 01:54:11;;;;;;;10.15;4.97;;;;;;;23.55;nan;61991.44;5070908;28;20170;-62
2023/07/27 01:56:38;;;;;;;8.30;4.53;;;;;;;23.30;nan;61991.69;5071708;28;20209;-63
2023/07/27 01:59:06;;;;;;;8.05;4.57;;;;;;;23.33;nan;61942.94;5071341;28;20171;-61
2023/07/27 02:01:32;;;;;;;9.50;4.18;;;;;;;23.25;nan;62023.06;5071704;28;20162;-61
2023/07/27 02:03:58;;;;;;;7.07;3.63;;;;;;;23.27;nan;62074.88;5071478;28;20230;-63
2023/07/27 02:06:23;;;;;;;7.15;4.32;;;;;;;23.46;nan;62132.47;5071622;28;20229;-61
2023/07/27 02:08:49;;;;;;;9.55;3.95;;;;;;;23.31;nan;61956.28;5071077;28;20253;-62
2023/07/27 02:11:18;;;;;;;8.85;4.28;;;;;;;23.49;nan;61997.63;5070210;28;20239;-60
2023/07/27 02:14:01;;;;;;;7.78;4.35;;;;;;;23.25;nan;62158.66;5071350;28;20201;-61
2023/07/27 02:16:32;;;;;;;7.20;4.50;;;;;;;23.45;nan;62068.72;5071632;28;20177;-61
2023/07/27 02:18:59;;;;;;;7.53;4.20;;;;;;;23.41;nan;61985.34;5071429;28;20174;-60
2023/07/27 02:21:28;;;;;;;6.68;4.38;;;;;;;23.16;nan;62017.47;5071282;28;20186;-61
2023/07/27 02:23:54;;;;;;;9.02;4.45;;;;;;;23.20;nan;61973.06;5071199;28;20201;-60
2023/07/27 02:26:19;;;;;;;8.05;4.40;;;;;;;23.08;nan;62081.34;5071289;28;20232;-60
2023/07/27 02:28:45;;;;;;;8.05;4.38;;;;;;;23.08;nan;61930.16;5072268;28;20170;-60
2023/07/27 02:31:10;;;;;;;6.65;4.25;;;;;;;23.07;nan;62075.56;5075102;28;20178;-62
2023/07/27 02:33:35;;;;;;;6.65;4.22;;;;;;;23.07;nan;61934.25;5074945;28;20606;-60
2023/07/27 02:36:01;;;;;;;6.57;4.07;;;;;;;23.13;nan;62060.97;5074571;28;20189;-61
2023/07/27 02:38:26;;;;;;;7.82;4.47;;;;;;;22.96;nan;61857.16;5075137;28;20257;-61
2023/07/27 02:40:51;;;;;;;6.75;4.10;;;;;;;22.98;nan;62085.59;5075319;28;20188;-60
2023/07/27 02:43:18;;;;;;;6.55;4.43;;;;;;;23.11;nan;61944.00;5074768;28;20200;-60
2023/07/27 02:45:43;;;;;;;9.00;4.38;;;;;;;22.99;nan;61923.09;5074767;28;20548;-61
2023/07/27 02:48:09;;;;;;;8.27;4.72;;;;;;;23.17;nan;62272.06;5074609;28;20166;-61
2023/07/27 02:50:34;;;;;;;7.63;4.32;;;;;;;22.98;nan;62010.03;5074570;28;20178;-61
2023/07/27 02:52:59;;;;;;;7.53;4.80;;;;;;;23.06;nan;62241.28;5074673;28;20214;-61
2023/07/27 02:55:25;;;;;;;7.45;4.75;;;;;;;23.05;nan;61984.09;5074749;28;20570;-61
2023/07/27 02:57:50;;;;;;;6.38;4.05;;;;;;;23.06;nan;61980.59;5074640;28;20215;-61
2023/07/27 03:00:16;;;;;;;7.00;4.30;;;;;;;22.91;nan;61947.91;5074354;28;20174;-62
2023/07/27 03:02:41;;;;;;;8.95;4.90;;;;;;;22.80;nan;61977.66;5074839;28;20557;-61
2023/07/27 03:05:07;;;;;;;8.18;4.72;;;;;;;22.63;nan;62035.88;5073751;28;20321;-61
2023/07/27 03:07:32;;;;;;;6.63;4.80;;;;;;;23.01;nan;61948.84;5074979;28;20637;-61
2023/07/27 03:09:57;;;;;;;8.13;4.68;;;;;;;22.76;nan;61934.00;5074554;28;20177;-62
2023/07/27 03:12:23;;;;;;;9.13;5.65;;;;;;;22.88;nan;61934.06;5074330;28;20579;-61
2023/07/27 03:14:48;;;;;;;8.20;4.38;;;;;;;22.65;nan;61915.72;5073546;28;20178;-62
2023/07/27 03:17:14;;;;;;;9.88;4.93;;;;;;;22.69;nan;61909.84;5081080;28;20177;-60
2023/07/27 03:19:39;;;;;;;8.57;5.13;;;;;;;22.92;nan;61961.50;5084306;28;20271;-61
2023/07/27 03:22:05;;;;;;;8.00;5.00;;;;;;;22.80;nan;61925.53;5073979;28;20260;-61
2023/07/27 03:24:31;;;;;;;6.22;4.00;;;;;;;22.59;nan;61890.66;5088797;28;20225;-61
2023/07/27 03:26:57;;;;;;;7.47;4.18;;;;;;;22.57;nan;61883.75;5094128;28;20254;-62
2023/07/27 03:29:22;;;;;;;6.72;3.97;;;;;;;22.81;nan;61934.50;5094114;28;20770;-61
2023/07/27 03:31:47;;;;;;;5.55;3.42;;;;;;;22.84;nan;61937.88;5094220;28;20166;-61
2023/07/27 03:34:13;;;;;;;5.30;3.67;;;;;;;22.67;nan;62003.94;5093886;28;20176;-61
2023/07/27 03:36:38;;;;;;;7.43;3.95;;;;;;;22.73;nan;61963.91;5076125;28;20253;-61
2023/07/27 03:39:04;;;;;;;5.20;3.20;;;;;;;22.32;nan;61842.91;5093917;28;20639;-61
2023/07/27 03:41:29;;;;;;;5.93;3.50;;;;;;;22.53;nan;62050.53;5092997;28;20181;-61
2023/07/27 03:43:54;;;;;;;5.45;3.58;;;;;;;22.73;nan;61932.66;5093968;28;20220;-61
2023/07/27 03:46:20;;;;;;;4.32;2.90;;;;;;;22.73;nan;61956.66;5093623;28;20166;-61
2023/07/27 03:48:48;;;;;;;4.28;2.83;;;;;;;22.80;nan;61920.31;5094183;28;20634;-61
2023/07/27 03:51:13;;;;;;;5.97;2.63;;;;;;;22.41;nan;61889.59;5093677;28;20176;-62
2023/07/27 03:53:39;;;;;;;6.70;2.60;;;;;;;22.41;nan;62074.47;5093874;28;20173;-62
2023/07/27 03:56:05;;;;;;;4.50;2.22;;;;;;;22.47;nan;61875.56;5093390;28;20177;-60
2023/07/27 03:58:30;;;;;;;3.88;2.70;;;;;;;22.44;nan;61845.56;5093356;28;20177;-62
2023/07/27 04:00:56;;;;;;;3.67;2.38;;;;;;;22.65;nan;61900.09;5093270;28;20186;-62
2023/07/27 04:03:22;;;;;;;6.05;2.63;;;;;;;22.99;nan;62009.13;5075321;28;20746;-62
2023/07/27 04:05:47;;;;;;;3.88;2.35;;;;;;;22.90;nan;61947.31;5092964;28;20213;-62
2023/07/27 04:08:12;;;;;;;4.20;2.53;;;;;;;22.77;nan;61888.25;5083287;28;20593;-62
2023/07/27 04:10:41;;;;;;;2.92;2.25;;;;;;;22.64;nan;61844.81;5085533;28;20189;-61
2023/07/27 04:13:06;;;;;;;5.30;2.33;;;;;;;22.53;nan;61910.47;5077984;28;20186;-61
2023/07/27 04:15:32;;;;;;;2.92;2.40;;;;;;;22.66;nan;62065.91;5073196;28;20531;-62
2023/07/27 04:17:58;;;;;;;3.38;2.42;;;;;;;22.40;nan;61846.78;5092894;28;20181;-60
2023/07/27 04:20:23;;;;;;;3.95;2.55;;;;;;;22.45;nan;61870.13;5093135;28;20166;-61
2023/07/27 04:22:49;;;;;;;3.83;2.78;;;;;;;22.48;nan;61878.72;5093000;28;20211;-62
2023/07/27 04:25:14;;;;;;;3.70;2.80;;;;;;;22.61;nan;62038.81;5093055;28;20596;-61
2023/07/27 04:27:39;;;;;;;3.15;2.50;;;;;;;22.64;nan;61964.66;5092888;28;20239;-60
2023/07/27 04:30:05;;;;;;;3.50;2.60;;;;;;;22.56;nan;61900.84;5092848;28;20261;-61
2023/07/27 04:32:31;;;;;;;3.58;2.53;;;;;;;22.55;nan;61870.50;5074362;28;20176;-61
2023/07/27 04:34:56;;;;;;;3.67;2.60;;;;;;;22.61;nan;62049.78;5092847;28;20161;-60
2023/07/27 04:37:21;;;;;;;4.30;2.90;;;;;;;22.35;nan;61838.50;5092768;28;20177;-61
2023/07/27 04:39:47;;;;;;;3.80;2.83;;;;;;;22.64;nan;61930.78;5092024;28;20162;-60
2023/07/27 04:42:12;;;;;;;3.85;2.92;;;;;;;22.59;nan;61901.09;5074536;28;20201;-62
2023/07/27 04:44:38;;;;;;;4.78;3.30;;;;;;;22.94;nan;61985.19;5071073;28;20194;-65
2023/07/27 04:47:04;;;;;;;3.55;2.70;;;;;;;23.03;nan;61979.78;5072314;28;20172;-61
2023/07/27 04:49:29;;;;;;;4.57;3.30;;;;;;;22.97;nan;61988.03;5082311;28;20185;-62
2023/07/27 04:51:54;;;;;;;4.97;3.15;;;;;;;22.96;nan;61937.38;5092668;28;20169;-62
2023/07/27 04:54:20;;;;;;;4.68;3.33;;;;;;;23.07;nan;62038.50;5092505;28;20260;-62
2023/07/27 04:56:45;;;;;;;5.03;3.28;;;;;;;23.09;nan;62134.63;5092111;28;20169;-61
2023/07/27 04:59:11;;;;;;;4.65;3.33;;;;;;;23.20;nan;62147.75;5092399;28;20659;-60
2023/07/27 05:01:36;;;;;;;3.90;2.95;;;;;;;23.35;nan;62013.00;5069194;28;20178;-60
2023/07/27 05:04:01;;;;;;;4.13;3.20;;;;;;;23.35;nan;62268.59;5071751;28;20206;-60
2023/07/27 05:06:27;;;;;;;4.88;3.40;;;;;;;23.28;nan;61932.59;5071051;28;20685;-61
2023/07/27 05:08:52;;;;;;;3.88;3.35;;;;;;;23.64;nan;62123.72;5070933;28;20178;-60
2023/07/27 05:11:18;;;;;;;4.50;3.33;;;;;;;23.31;nan;62097.69;5071121;28;20185;-62
2023/07/27 05:13:43;;;;;;;4.35;3.35;;;;;;;23.41;nan;62016.66;5071271;28;20169;-60
2023/07/27 05:16:09;;;;;;;4.20;3.25;;;;;;;23.50;nan;61935.59;5071084;28;20177;-63
2023/07/27 05:18:34;;;;;;;5.15;3.30;;;;;;;23.39;nan;62007.13;5071884;28;20257;-61
2023/07/27 05:20:59;;;;;;;6.20;3.97;;;;;;;23.76;nan;62093.59;5071025;28;20559;-62
2023/07/27 05:23:25;;;;;;;5.45;3.72;;;;;;;23.49;nan;62008.06;5071362;28;20668;-61
2023/07/27 05:25:51;;;;;;;5.50;3.92;;;;;;;23.78;nan;62194.47;5071189;28;20174;-63
2023/07/27 05:28:17;;;;;;;4.53;3.40;;;;;;;23.86;nan;62163.88;5071338;28;20174;-63
2023/07/27 05:30:43;;;;;;;5.20;3.65;;;;;;;23.93;nan;62378.66;5071109;28;20174;-61
2023/07/27 05:33:08;;;;;;;5.60;3.70;;;;;;;23.70;nan;62180.13;5071693;28;20246;-60
2023/07/27 05:35:34;;;;;;;4.63;3.35;;;;;;;23.74;nan;62172.22;5071343;28;20174;-64
2023/07/27 05:37:59;;;;;;;6.47;4.07;;;;;;;23.80;nan;62052.66;5071438;28;20323;-61
2023/07/27 05:40:25;;;;;;;9.13;3.60;;;;;;;23.59;nan;62149.31;5071319;28;20198;-61
2023/07/27 05:42:50;;;;;;;5.28;3.83;;;;;;;23.50;nan;62009.22;5070879;28;20245;-61
2023/07/27 05:45:18;;;;;;;4.93;3.30;;;;;;;23.32;nan;61957.44;5070863;28;20600;-62
2023/07/27 05:47:43;;;;;;;5.32;3.88;;;;;;;23.69;nan;62093.47;5070975;28;20178;-62
2023/07/27 05:50:09;;;;;;;4.53;3.63;;;;;;;24.08;nan;62100.75;5052878;28;20704;-62
2023/07/27 05:52:35;;;;;;;6.00;3.72;;;;;;;23.66;nan;62175.59;5071291;28;20169;-61
2023/07/27 05:55:00;;;;;;;5.88;4.10;;;;;;;23.50;nan;62009.22;5070881;28;20771;-66
2023/07/27 05:57:26;;;;;;;6.80;3.92;;;;;;;23.63;nan;62080.84;5070903;28;20607;-63
2023/07/27 05:59:51;;;;;;;5.47;3.42;;;;;;;23.32;nan;62111.88;5071313;28;20166;-61
2023/07/27 06:02:17;;;;;;;5.85;3.90;;;;;;;23.47;nan;62164.34;5070814;28;20285;-64
2023/07/27 06:04:42;;;;;;;7.75;3.28;;;;;;;23.76;nan;62114.50;5073517;28;20681;-65
2023/07/27 06:07:07;;;;;;;4.32;3.28;;;;;;;23.81;nan;62066.84;5075052;28;20661;-63
2023/07/27 06:09:36;;;;;;;7.22;4.07;;;;;;;24.11;nan;62121.88;5075093;28;20269;-62
2023/07/27 06:12:11;;;;;;;5.28;3.00;;;;;;;23.65;nan;62164.00;5074627;28;20177;-62
2023/07/27 06:14:38;;;;;;;4.43;3.30;;;;;;;23.61;nan;61886.06;5074484;28;20176;-60
2023/07/27 06:17:04;;;;;;;4.72;2.97;;;;;;;23.76;nan;62200.59;5056716;28;20603;-63
2023/07/27 06:19:29;;;;;;;4.40;2.97;;;;;;;23.84;nan;62070.81;5074544;28;20262;-63
2023/07/27 06:21:54;;;;;;;4.18;3.20;;;;;;;23.67;nan;61992.03;5074501;28;20166;-63
2023/07/27 06:24:20;;;;;;;4.25;3.22;;;;;;;23.85;nan;62071.41;5074087;28;20205;-61
2023/07/27 06:26:45;;;;;;;7.05;2.88;;;;;;;23.53;nan;62017.84;5074156;28;20241;-60
2023/07/27 06:29:11;;;;;;;4.40;2.75;;;;;;;23.76;nan;62017.34;5074186;28;20206;-62
2023/07/27 06:31:36;;;;;;;3.97;2.90;;;;;;;23.50;nan;62133.84;5074662;28;20524;-62
2023/07/27 06:34:02;;;;;;;4.40;2.83;;;;;;;23.64;nan;62030.38;5074536;28;20173;-63
2023/07/27 06:36:27;;;;;;;3.72;2.88;;;;;;;23.85;nan;62155.50;5073618;28;20194;-62
2023/07/27 06:38:53;;;;;;;4.35;2.80;;;;;;;23.90;nan;62092.75;5090070;28;20275;-60
2023/07/27 06:41:24;;;;;;;4.22;2.83;;;;;;;23.89;nan;62083.78;5075547;28;20213;-63
2023/07/27 06:43:49;;;;;;;4.38;3.00;;;;;;;23.59;nan;62066.41;5073300;28;20197;-64
2023/07/27 06:46:15;;;;;;;9.48;3.10;;;;;;;23.81;nan;62064.22;5073295;28;20170;-62
2023/07/27 06:48:40;;;;;;;3.97;2.55;;;;;;;23.45;nan;61989.91;5073273;28;20190;-62
2023/07/27 06:51:06;;;;;;;3.00;2.33;;;;;;;23.23;nan;61999.91;5087687;28;20570;-61
2023/07/27 06:53:31;;;;;;;3.47;2.65;;;;;;;23.24;nan;62290.50;5078240;28;20192;-62
2023/07/27 06:55:57;;;;;;;3.15;2.60;;;;;;;23.16;nan;62027.91;5074522;28;20245;-62
2023/07/27 06:58:22;;;;;;;5.05;2.67;;;;;;;23.13;nan;62034.91;5094167;28;20177;-63
2023/07/27 07:00:48;;;;;;;8.40;2.63;;;;;;;22.99;nan;62035.19;5094603;28;20222;-61
2023/07/27 07:03:13;;;;;;;4.65;2.70;;;;;;;23.37;nan;62046.00;5094238;28;20292;-62
2023/07/27 07:05:38;;;;;;;3.17;2.60;;;;;;;23.37;nan;61962.53;5093813;28;20217;-64
2023/07/27 07:08:04;;;;;;;3.88;2.80;;;;;;;24.04;nan;62137.41;5094094;28;20169;-62
2023/07/27 07:10:29;;;;;;;3.17;2.60;;;;;;;24.13;nan;62105.88;5094180;28;20177;-60
2023/07/27 07:12:55;;;;;;;4.28;2.90;;;;;;;24.59;nan;62215.78;5093695;28;20165;-61
2023/07/27 07:15:20;;;;;;;3.25;2.70;;;;;;;24.86;nan;62222.50;5088146;28;20591;-63
2023/07/27 07:17:46;;;;;;;3.35;2.42;;;;;;;24.70;nan;62174.91;5080147;28;20189;-64
2023/07/27 07:20:11;;;;;;;6.28;3.00;;;;;;;24.34;nan;62163.75;5085063;28;20182;-64
2023/07/27 07:22:37;;;;;;;6.20;3.58;;;;;;;24.65;nan;62167.72;5073230;28;20170;-62
2023/07/27 07:25:03;;;;;;;5.20;2.97;;;;;;;24.57;nan;62299.72;5086986;28;20205;-62
2023/07/27 07:27:28;;;;;;;4.40;2.75;;;;;;;24.87;nan;62312.53;5072710;28;20188;-62
2023/07/27 07:29:53;;;;;;;4.72;3.17;;;;;;;24.85;nan;62320.66;5055473;28;20185;-63
2023/07/27 07:32:19;;;;;;;4.07;2.88;;;;;;;24.75;nan;62285.16;5073466;28;20663;-64
2023/07/27 07:34:44;;;;;;;3.75;2.95;;;;;;;24.74;nan;62195.69;5073436;28;20702;-64
2023/07/27 07:37:10;;;;;;;4.03;2.50;;;;;;;24.74;nan;62216.63;5072333;28;20174;-63
2023/07/27 07:39:35;;;;;;;3.60;2.60;;;;;;;25.06;nan;62305.44;5071400;28;20257;-62
2023/07/27 07:42:01;;;;;;;4.65;2.22;;;;;;;24.82;nan;62188.59;5071295;28;20169;-67
2023/07/27 07:44:26;;;;;;;4.50;2.15;;;;;;;24.69;nan;62226.03;5071535;28;20200;-67
2023/07/27 07:46:52;;;;;;;8.48;3.17;;;;;;;24.78;nan;62293.81;5071480;28;20181;-66
2023/07/27 07:49:18;;;;;;;2.90;2.20;;;;;;;24.76;nan;62160.81;5071072;28;20197;-67
2023/07/27 07:51:43;;;;;;;5.10;2.75;;;;;;;24.42;nan;62298.28;5071795;28;20166;-68
2023/07/27 07:54:09;;;;;;;3.30;2.40;;;;;;;24.93;nan;62301.06;5073334;28;20182;-68
2023/07/27 07:56:35;;;;;;;2.65;1.95;;;;;;;24.33;nan;62092.09;5073668;28;20312;-66
2023/07/27 07:59:01;;;;;;;2.17;1.98;;;;;;;24.68;nan;62172.63;5073766;28;20177;-66
2023/07/27 08:01:26;;;;;;;3.08;2.10;;;;;;;24.17;nan;62076.50;5073101;28;20557;-68
2023/07/27 08:03:52;;;;;;;3.75;2.00;;;;;;;24.10;nan;62086.78;5055705;28;20217;-67
2023/07/27 08:06:17;;;;;;;2.40;2.20;;;;;;;24.27;nan;62118.66;5072909;28;20592;-68
2023/07/27 08:08:44;;;;;;;3.15;2.33;;;;;;;23.85;nan;62181.00;5073200;28;20571;-66
2023/07/27 08:11:09;;;;;;;2.38;2.17;;;;;;;23.79;nan;62052.09;5073021;28;20249;-67
2023/07/27 08:13:34;;;;;;;4.55;2.05;;;;;;;23.98;nan;62117.50;5055305;28;20759;-67
2023/07/27 08:16:03;;;;;;;4.57;2.03;;;;;;;23.98;nan;62277.34;5073325;28;20170;-68
2023/07/27 08:18:29;;;;;;;2.53;2.20;;;;;;;23.90;nan;62139.72;5073115;28;20665;-68
2023/07/27 08:21:02;;;;;;;2.95;2.20;;;;;;;23.63;nan;62029.22;5072934;28;20171;-67
2023/07/27 08:23:28;;;;;;;2.72;2.30;;;;;;;23.87;nan;62181.25;5073000;28;20193;-67
2023/07/27 08:25:55;;;;;;;3.55;2.50;;;;;;;24.06;nan;62087.47;5072690;28;20170;-68
2023/07/27 08:28:21;;;;;;;6.63;2.70;;;;;;;23.60;nan;61996.53;5072674;28;20545;-67
2023/07/27 08:30:47;;;;;;;4.22;3.03;;;;;;;23.84;nan;62151.16;5073110;28;20174;-67
2023/07/27 08:33:13;;;;;;;7.72;3.33;;;;;;;23.59;nan;62087.28;5072565;28;20641;-66
2023/07/27 08:35:38;;;;;;;4.20;2.75;;;;;;;23.23;nan;61931.56;5072810;28;20185;-67
2023/07/27 08:38:04;;;;;;;5.22;3.08;;;;;;;23.24;nan;62107.41;5072619;28;20174;-67
2023/07/27 08:40:30;;;;;;;3.58;2.67;;;;;;;23.21;nan;62073.25;5072457;28;20629;-67
2023/07/27 08:42:55;;;;;;;3.33;2.45;;;;;;;22.96;nan;62002.53;5072492;28;20174;-66
2023/07/27 08:45:22;;;;;;;4.30;2.42;;;;;;;23.04;nan;62074.75;5072124;28;20634;-66
2023/07/27 08:47:53;;;;;;;3.28;2.40;;;;;;;22.77;nan;61864.81;5072303;28;20263;-67
2023/07/27 08:50:19;;;;;;;2.95;2.60;;;;;;;22.51;nan;61863.94;5072478;28;20166;-67
2023/07/27 08:52:46;;;;;;;3.67;2.40;;;;;;;22.69;nan;61959.91;5072235;28;20170;-67
2023/07/27 08:55:11;;;;;;;4.50;2.63;;;;;;;22.09;nan;61949.53;5072182;28;20173;-66
2023/07/27 08:57:37;;;;;;;3.08;2.50;;;;;;;22.22;nan;61898.66;5072597;28;20166;-67
2023/07/27 09:00:03;;;;;;;4.75;3.03;;;;;;;22.05;nan;62077.16;5072355;28;20181;-66
2023/07/27 09:02:28;;;;;;;4.38;3.10;;;;;;;21.76;nan;61876.13;5072755;28;20687;-67
2023/07/27 09:04:53;;;;;;;5.65;3.30;;;;;;;21.51;nan;61904.94;5053933;28;20707;-66
2023/07/27 09:07:19;;;;;;;3.45;2.50;;;;;;;21.42;nan;62050.69;5072008;28;20170;-68
2023/07/27 09:09:52;;;;;;;2.70;2.25;;;;;;;21.32;nan;61738.34;5072058;28;20172;-66
2023/07/27 09:12:26;;;;;;;3.65;2.70;;;;;;;21.62;nan;61865.44;5072363;28;20660;-66
2023/07/27 09:14:52;;;;;;;4.35;2.78;;;;;;;21.79;nan;62126.09;5071919;28;20539;-67
2023/07/27 09:17:18;;;;;;;3.03;2.45;;;;;;;22.01;nan;61948.25;5072198;28;20177;-67
2023/07/27 09:19:43;;;;;;;3.65;2.80;;;;;;;22.26;nan;61945.44;5071813;28;20583;-67
2023/07/27 09:22:11;;;;;;;3.65;2.50;;;;;;;22.27;nan;61844.47;5071840;28;20655;-67
2023/07/27 09:24:37;;;;;;;3.58;2.45;;;;;;;23.05;nan;62002.34;5071889;28;20202;-67
2023/07/27 09:27:09;;;;;;;2.60;2.15;;;;;;;23.36;nan;62186.25;5071830;28;20699;-67
2023/07/27 09:29:34;;;;;;;3.75;2.40;;;;;;;23.63;nan;62055.31;5054138;28;20170;-68
2023/07/27 09:32:00;;;;;;;3.47;2.40;;;;;;;23.53;nan;62156.13;5071931;28;20540;-67
2023/07/27 09:34:28;;;;;;;5.13;2.22;;;;;;;23.88;nan;62069.59;5071464;28;20562;-67
2023/07/27 09:37:00;;;;;;;2.83;2.00;;;;;;;23.58;nan;62229.09;5071878;28;20187;-67
2023/07/27 09:39:27;;;;;;;2.53;2.00;;;;;;;24.09;nan;62060.09;5070464;28;20193;-65
2023/07/27 09:41:53;;;;;;;2.20;2.00;;;;;;;24.71;nan;62260.25;5071625;28;20186;-63
2023/07/27 09:44:21;;;;;;;1.98;1.77;;;;;;;24.73;nan;62155.38;5070337;28;20677;-66
2023/07/27 09:46:47;;;;;;;2.50;2.10;;;;;;;25.28;nan;62269.81;5071263;28;20166;-65
2023/07/27 09:49:13;;;;;;;3.72;1.98;;;;;;;25.41;nan;62240.16;5071373;28;20197;-61
2023/07/27 09:51:39;;;;;;;2.15;1.85;;;;;;;25.49;nan;62408.91;5071458;28;20534;-64
2023/07/27 09:54:05;;;;;;;2.53;2.03;;;;;;;25.61;nan;62319.44;5070423;28;20166;-65
2023/07/27 09:56:31;;;;;;;3.95;1.90;;;;;;;25.73;nan;62314.78;5071209;28;20528;-63
2023/07/27 09:58:58;;;;;;;2.00;1.80;;;;;;;25.97;nan;62630.28;5071237;28;20174;-63
2023/07/27 10:01:25;;;;;;;2.83;2.00;;;;;;;26.18;nan;62381.28;5071169;28;20185;-68
2023/07/27 10:03:50;;;;;;;2.00;1.80;;;;;;;26.30;nan;62392.97;5070479;28;20270;-62
2023/07/27 10:06:17;;;;;;;2.35;2.10;;;;;;;26.48;nan;62428.69;5069444;28;20278;-63
2023/07/27 10:08:45;;;;;;;2.25;1.83;;;;;;;26.25;nan;62407.66;5078044;28;20656;-62
2023/07/27 10:11:10;;;;;;;1.73;1.63;;;;;;;26.42;nan;62537.16;5069394;28;20270;-60
2023/07/27 10:13:44;;;;;;;2.17;1.83;;;;;;;26.49;nan;62397.81;5070890;28;20634;-62
2023/07/27 10:16:11;;;;;;;2.00;1.70;;;;;;;26.52;nan;62401.22;5086535;28;20248;-62
2023/07/27 10:18:47;;;;;;;1.98;1.65;;;;;;;26.72;nan;62552.56;5090965;28;20225;-62
2023/07/27 10:21:21;;;;;;;2.00;1.75;;;;;;;26.92;nan;62517.19;5085772;28;20173;-62
2023/07/27 10:23:57;;;;;;;2.45;1.75;;;;;;;26.98;nan;62553.47;5074559;28;20192;-62
2023/07/27 10:26:42;;;;;;;1.67;1.52;;;;;;;26.96;nan;62569.53;5079387;28;20257;-63
2023/07/27 10:29:18;;;;;;;5.78;2.13;;;;;;;26.95;nan;62523.25;5070665;28;20162;-65
2023/07/27 10:31:45;;;;;;;2.15;1.65;;;;;;;26.73;nan;62543.19;5063909;28;20192;-62
2023/07/27 10:34:16;;;;;;;3.33;2.17;;;;;;;26.86;nan;62439.50;5070762;28;20184;-69
2023/07/27 10:36:58;;;;;;;3.05;1.73;;;;;;;26.88;nan;62560.38;5069150;28;20204;-60
2023/07/27 10:39:43;;;;;;;2.35;1.90;;;;;;;27.12;nan;62511.75;5071185;28;20257;-63
2023/07/27 10:42:12;;;;;;;1.80;1.55;;;;;;;26.76;nan;62591.22;5070688;28;20173;-61
2023/07/27 10:44:52;;;;;;;2.75;1.80;;;;;;;26.70;nan;62421.78;5070813;28;20198;-62
2023/07/27 10:47:46;;;;;;;3.85;2.38;;;;;;;27.03;nan;62574.38;5070532;28;20174;-63
2023/07/27 10:50:13;;;;;;;3.60;2.83;;;;;;;27.05;nan;62558.28;5070963;28;20190;-66
2023/07/27 10:52:39;;;;;;;4.63;2.92;;;;;;;27.49;nan;62576.59;5080044;28;20169;-61
2023/07/27 10:55:08;;;;;;;3.33;2.22;;;;;;;27.57;nan;62667.72;5085229;28;20269;-66
2023/07/27 10:57:34;;;;;;;2.05;1.77;;;;;;;27.55;nan;62612.34;5074093;28;20226;-63
2023/07/27 11:00:01;;;;;;;2.42;1.70;;;;;;;27.55;nan;62576.16;5087969;28;20227;-62
2023/07/27 11:02:29;;;;;;;2.72;2.00;;;;;;;27.32;nan;62633.81;5075848;28;20162;-63
2023/07/27 11:05:00;;;;;;;3.25;1.92;;;;;;;27.65;nan;62595.44;5093818;28;20319;-60
2023/07/27 11:07:33;;;;;;;4.88;2.47;;;;;;;27.55;nan;62562.44;5093739;28;20188;-64
2023/07/27 11:10:10;;;;;;;3.33;1.70;;;;;;;27.62;nan;62649.22;5074739;28;20189;-63
2023/07/27 11:12:52;;;;;;;1.70;1.45;;;;;;;27.20;nan;62675.75;5081165;28;20599;-64
2023/07/27 11:15:20;;;;;;;2.40;1.70;;;;;;;27.33;nan;62666.44;5073594;28;20509;-61
2023/07/27 11:17:47;;;;;;;3.03;2.22;;;;;;;27.41;nan;62627.78;5085485;28;20483;-64
2023/07/27 11:20:13;;;;;;;2.92;1.90;;;;;;;27.54;nan;62769.31;5093243;28;20169;-63
2023/07/27 11:22:38;;;;;;;3.90;2.13;;;;;;;27.71;nan;62622.19;5093209;28;20191;-61
2023/07/27 11:25:04;;;;;;;2.97;2.35;;;;;;;27.73;nan;62587.72;5093029;28;20553;-65
2023/07/27 11:27:30;;;;;;;4.63;2.17;;;;;;;27.65;nan;62629.03;5093826;28;20276;-63
2023/07/27 11:29:59;;;;;;;2.83;1.70;;;;;;;27.51;nan;62550.00;5093699;28;20640;-61
2023/07/27 11:32:27;;;;;;;2.45;1.88;;;;;;;27.76;nan;62589.09;5079372;28;20231;-64
2023/07/27 11:34:57;;;;;;;2.75;1.83;;;;;;;27.70;nan;62702.47;5089170;28;20762;-62
2023/07/27 11:37:29;;;;;;;1.73;1.63;;;;;;;27.96;nan;62648.19;5073988;28;20181;-63
2023/07/27 11:39:54;;;;;;;2.22;1.60;;;;;;;27.84;nan;62842.00;5078312;28;20284;-64
2023/07/27 11:42:35;;;;;;;3.10;1.90;;;;;;;27.82;nan;62782.47;5088667;28;20332;-63
2023/07/27 11:45:01;;;;;;;3.50;1.73;;;;;;;27.93;nan;62642.13;5071258;28;20213;-62
2023/07/27 11:47:26;;;;;;;2.17;1.95;;;;;;;27.82;nan;62705.72;5090207;28;20170;-66
2023/07/27 11:49:54;;;;;;;2.10;1.73;;;;;;;27.85;nan;62599.38;5072484;28;20198;-64